KBHM

Birmingham-Shuttlesworth International Airport

Birmingham, Alabama, USA
METAR KBHM 230314Z 00000KT 10SM SCT027 23/22 A3007 RMK AO2 T02330217
Observed Flight Rules
May-23 @ 03:14 UTC (14 minutes ago) Visual Flight Rules
Visibility Clouds
10 miles
  • Scattered at 2,700' AGL
Temperatures Readings
Current 23°C / 73°F
Dewpoint 22°C / 72°F
Humidity 94%
Altimeter 30.07" Hg
Pressure 1018 hPa
Elevation 197
METAR KBHM 230314Z 00000KT 10SM SCT027 23/22 A3007 RMK AO2 T02330217
Observed Flight Rules
May-23 @ 03:14 UTC
(14 minutes ago)
VFR
Clouds
  • Scattered at 2,700' AGL
Temperature Dewpoint
23°C / 73°F 22°C / 72°F
Humidity Altimeter Pressure
94% 30.07" Hg 1018 hPa